sensor_id;sensor_type;location;lat;lon;timestamp;P1;durP1;ratioP1;P2;durP2;ratioP2
48751;SDS011;34544;48.836;9.174;2022-11-15T00:01:53;5.20;;;3.72;;
48751;SDS011;34544;48.836;9.174;2022-11-15T00:04:37;6.03;;;4.25;;
48751;SDS011;34544;48.836;9.174;2022-11-15T00:07:21;6.93;;;4.40;;
48751;SDS011;34544;48.836;9.174;2022-11-15T00:10:06;6.47;;;3.97;;
48751;SDS011;34544;48.836;9.174;2022-11-15T00:12:50;8.63;;;4.70;;
48751;SDS011;34544;48.836;9.174;2022-11-15T00:15:35;7.40;;;4.43;;
48751;SDS011;34544;48.836;9.174;2022-11-15T00:18:20;7.40;;;4.88;;
48751;SDS011;34544;48.836;9.174;2022-11-15T00:21:07;11.63;;;5.35;;
48751;SDS011;34544;48.836;9.174;2022-11-15T00:23:56;8.60;;;5.07;;
48751;SDS011;34544;48.836;9.174;2022-11-15T00:26:40;8.55;;;4.50;;
48751;SDS011;34544;48.836;9.174;2022-11-15T00:29:24;11.52;;;3.83;;
48751;SDS011;34544;48.836;9.174;2022-11-15T00:32:11;8.13;;;3.92;;
48751;SDS011;34544;48.836;9.174;2022-11-15T00:34:55;7.57;;;3.40;;
48751;SDS011;34544;48.836;9.174;2022-11-15T00:37:39;7.43;;;3.85;;
48751;SDS011;34544;48.836;9.174;2022-11-15T00:40:24;8.38;;;4.97;;
48751;SDS011;34544;48.836;9.174;2022-11-15T00:43:08;22.70;;;5.53;;
48751;SDS011;34544;48.836;9.174;2022-11-15T00:45:52;10.88;;;4.25;;
48751;SDS011;34544;48.836;9.174;2022-11-15T00:48:36;6.13;;;3.90;;
48751;SDS011;34544;48.836;9.174;2022-11-15T00:51:21;11.23;;;4.78;;
48751;SDS011;34544;48.836;9.174;2022-11-15T00:54:05;9.18;;;4.22;;
48751;SDS011;34544;48.836;9.174;2022-11-15T00:56:49;6.63;;;4.35;;
48751;SDS011;34544;48.836;9.174;2022-11-15T00:59:34;6.55;;;4.50;;
48751;SDS011;34544;48.836;9.174;2022-11-15T01:02:18;10.38;;;4.75;;
48751;SDS011;34544;48.836;9.174;2022-11-15T01:05:02;13.90;;;5.15;;
48751;SDS011;34544;48.836;9.174;2022-11-15T01:07:51;8.90;;;3.88;;
48751;SDS011;34544;48.836;9.174;2022-11-15T01:10:36;6.63;;;3.95;;
48751;SDS011;34544;48.836;9.174;2022-11-15T01:13:20;5.13;;;3.42;;
48751;SDS011;34544;48.836;9.174;2022-11-15T01:18:53;7.22;;;3.47;;
48751;SDS011;34544;48.836;9.174;2022-11-15T01:21:37;7.13;;;3.83;;
48751;SDS011;34544;48.836;9.174;2022-11-15T01:24:21;10.68;;;4.47;;
48751;SDS011;34544;48.836;9.174;2022-11-15T01:27:05;6.75;;;3.75;;
48751;SDS011;34544;48.836;9.174;2022-11-15T01:29:50;7.82;;;4.40;;
48751;SDS011;34544;48.836;9.174;2022-11-15T01:32:34;4.60;;;3.53;;
48751;SDS011;34544;48.836;9.174;2022-11-15T01:35:18;6.50;;;3.92;;
48751;SDS011;34544;48.836;9.174;2022-11-15T01:38:03;8.80;;;3.95;;
48751;SDS011;34544;48.836;9.174;2022-11-15T01:40:48;6.93;;;3.95;;
48751;SDS011;34544;48.836;9.174;2022-11-15T01:43:34;12.57;;;5.65;;
48751;SDS011;34544;48.836;9.174;2022-11-15T01:49:14;8.15;;;4.25;;
48751;SDS011;34544;48.836;9.174;2022-11-15T01:52:03;6.25;;;4.78;;
48751;SDS011;34544;48.836;9.174;2022-11-15T01:54:53;7.10;;;4.82;;
48751;SDS011;34544;48.836;9.174;2022-11-15T01:57:43;8.40;;;5.43;;
48751;SDS011;34544;48.836;9.174;2022-11-15T02:00:31;10.25;;;5.43;;
48751;SDS011;34544;48.836;9.174;2022-11-15T02:03:16;11.63;;;5.30;;
48751;SDS011;34544;48.836;9.174;2022-11-15T02:06:01;11.45;;;5.93;;
48751;SDS011;34544;48.836;9.174;2022-11-15T02:08:47;9.05;;;4.90;;
48751;SDS011;34544;48.836;9.174;2022-11-15T02:11:32;8.82;;;5.20;;
48751;SDS011;34544;48.836;9.174;2022-11-15T02:14:17;8.85;;;5.35;;
48751;SDS011;34544;48.836;9.174;2022-11-15T02:17:10;9.68;;;4.90;;
48751;SDS011;34544;48.836;9.174;2022-11-15T02:26:47;7.18;;;4.18;;
48751;SDS011;34544;48.836;9.174;2022-11-15T02:30:04;10.30;;;5.28;;
48751;SDS011;34544;48.836;9.174;2022-11-15T02:33:15;7.43;;;4.78;;
48751;SDS011;34544;48.836;9.174;2022-11-15T02:39:28;5.60;;;3.97;;
48751;SDS011;34544;48.836;9.174;2022-11-15T02:42:28;7.30;;;4.40;;
48751;SDS011;34544;48.836;9.174;2022-11-15T02:45:36;7.63;;;4.40;;
48751;SDS011;34544;48.836;9.174;2022-11-15T02:48:28;4.78;;;3.67;;
48751;SDS011;34544;48.836;9.174;2022-11-15T02:51:14;7.72;;;3.80;;
48751;SDS011;34544;48.836;9.174;2022-11-15T02:54:00;7.63;;;4.55;;
48751;SDS011;34544;48.836;9.174;2022-11-15T02:56:44;7.97;;;4.90;;
48751;SDS011;34544;48.836;9.174;2022-11-15T03:12:33;8.52;;;4.18;;
48751;SDS011;34544;48.836;9.174;2022-11-15T03:15:21;8.02;;;4.22;;
48751;SDS011;34544;48.836;9.174;2022-11-15T03:18:12;7.75;;;4.80;;
48751;SDS011;34544;48.836;9.174;2022-11-15T03:21:06;9.70;;;4.47;;
48751;SDS011;34544;48.836;9.174;2022-11-15T03:23:55;5.13;;;3.95;;
48751;SDS011;34544;48.836;9.174;2022-11-15T03:26:45;6.72;;;4.03;;
48751;SDS011;34544;48.836;9.174;2022-11-15T03:29:32;13.00;;;4.15;;
48751;SDS011;34544;48.836;9.174;2022-11-15T03:32:20;6.93;;;3.72;;
48751;SDS011;34544;48.836;9.174;2022-11-15T03:35:11;8.40;;;4.50;;
48751;SDS011;34544;48.836;9.174;2022-11-15T03:38:05;5.72;;;4.28;;
48751;SDS011;34544;48.836;9.174;2022-11-15T03:41:09;8.15;;;3.83;;
48751;SDS011;34544;48.836;9.174;2022-11-15T03:44:14;6.15;;;4.38;;
48751;SDS011;34544;48.836;9.174;2022-11-15T03:50:13;8.68;;;4.47;;
48751;SDS011;34544;48.836;9.174;2022-11-15T03:53:00;5.28;;;4.10;;
48751;SDS011;34544;48.836;9.174;2022-11-15T03:55:45;6.97;;;5.20;;
48751;SDS011;34544;48.836;9.174;2022-11-15T03:58:29;9.73;;;4.63;;
48751;SDS011;34544;48.836;9.174;2022-11-15T04:01:13;10.80;;;4.95;;
48751;SDS011;34544;48.836;9.174;2022-11-15T04:03:57;10.55;;;5.50;;
48751;SDS011;34544;48.836;9.174;2022-11-15T04:06:41;13.13;;;6.32;;
48751;SDS011;34544;48.836;9.174;2022-11-15T04:09:25;7.53;;;5.30;;
48751;SDS011;34544;48.836;9.174;2022-11-15T04:12:09;8.57;;;5.22;;
48751;SDS011;34544;48.836;9.174;2022-11-15T04:14:53;12.43;;;5.40;;
48751;SDS011;34544;48.836;9.174;2022-11-15T04:17:54;10.23;;;4.82;;
48751;SDS011;34544;48.836;9.174;2022-11-15T04:20:39;14.32;;;9.02;;
48751;SDS011;34544;48.836;9.174;2022-11-15T04:23:42;17.25;;;11.10;;
48751;SDS011;34544;48.836;9.174;2022-11-15T04:26:45;18.63;;;10.88;;
48751;SDS011;34544;48.836;9.174;2022-11-15T04:29:30;14.13;;;9.88;;
48751;SDS011;34544;48.836;9.174;2022-11-15T04:32:20;17.02;;;12.43;;
48751;SDS011;34544;48.836;9.174;2022-11-15T04:35:04;22.42;;;13.32;;
48751;SDS011;34544;48.836;9.174;2022-11-15T04:37:49;21.08;;;13.80;;
48751;SDS011;34544;48.836;9.174;2022-11-15T04:40:34;19.17;;;12.82;;
48751;SDS011;34544;48.836;9.174;2022-11-15T04:43:18;19.60;;;11.98;;
48751;SDS011;34544;48.836;9.174;2022-11-15T04:46:02;14.30;;;8.57;;
48751;SDS011;34544;48.836;9.174;2022-11-15T04:48:47;18.65;;;9.80;;
48751;SDS011;34544;48.836;9.174;2022-11-15T04:51:31;11.40;;;7.75;;
48751;SDS011;34544;48.836;9.174;2022-11-15T04:54:15;13.68;;;7.60;;
48751;SDS011;34544;48.836;9.174;2022-11-15T04:56:59;10.52;;;6.35;;
48751;SDS011;34544;48.836;9.174;2022-11-15T04:59:43;12.43;;;6.43;;
48751;SDS011;34544;48.836;9.174;2022-11-15T05:02:27;13.10;;;5.68;;
48751;SDS011;34544;48.836;9.174;2022-11-15T05:05:31;13.40;;;5.32;;
48751;SDS011;34544;48.836;9.174;2022-11-15T05:08:15;6.90;;;4.40;;
48751;SDS011;34544;48.836;9.174;2022-11-15T05:10:59;9.32;;;5.22;;
48751;SDS011;34544;48.836;9.174;2022-11-15T05:13:44;9.30;;;4.90;;
48751;SDS011;34544;48.836;9.174;2022-11-15T05:16:28;7.78;;;4.95;;
48751;SDS011;34544;48.836;9.174;2022-11-15T05:19:12;7.72;;;4.70;;
48751;SDS011;34544;48.836;9.174;2022-11-15T05:21:56;6.70;;;4.88;;
48751;SDS011;34544;48.836;9.174;2022-11-15T05:24:40;10.90;;;7.43;;
48751;SDS011;34544;48.836;9.174;2022-11-15T05:27:24;10.43;;;6.47;;
48751;SDS011;34544;48.836;9.174;2022-11-15T05:30:08;19.88;;;11.02;;
48751;SDS011;34544;48.836;9.174;2022-11-15T05:32:52;13.23;;;8.85;;
48751;SDS011;34544;48.836;9.174;2022-11-15T05:35:41;13.95;;;8.48;;
48751;SDS011;34544;48.836;9.174;2022-11-15T05:38:30;16.77;;;9.45;;
48751;SDS011;34544;48.836;9.174;2022-11-15T05:41:14;12.57;;;7.88;;
48751;SDS011;34544;48.836;9.174;2022-11-15T05:44:03;11.30;;;7.88;;
48751;SDS011;34544;48.836;9.174;2022-11-15T05:46:51;11.82;;;7.85;;
48751;SDS011;34544;48.836;9.174;2022-11-15T05:49:38;12.88;;;6.68;;
48751;SDS011;34544;48.836;9.174;2022-11-15T05:52:28;10.68;;;6.60;;
48751;SDS011;34544;48.836;9.174;2022-11-15T05:55:14;9.23;;;5.18;;
48751;SDS011;34544;48.836;9.174;2022-11-15T05:57:59;11.10;;;5.57;;
48751;SDS011;34544;48.836;9.174;2022-11-15T06:00:44;7.95;;;5.22;;
48751;SDS011;34544;48.836;9.174;2022-11-15T06:03:29;10.07;;;5.53;;
48751;SDS011;34544;48.836;9.174;2022-11-15T06:06:13;7.32;;;4.97;;
48751;SDS011;34544;48.836;9.174;2022-11-15T06:08:57;12.00;;;5.70;;
48751;SDS011;34544;48.836;9.174;2022-11-15T06:11:41;8.35;;;5.20;;
48751;SDS011;34544;48.836;9.174;2022-11-15T06:14:25;10.65;;;6.38;;
48751;SDS011;34544;48.836;9.174;2022-11-15T06:17:09;7.53;;;4.68;;
48751;SDS011;34544;48.836;9.174;2022-11-15T06:19:53;10.02;;;5.50;;
48751;SDS011;34544;48.836;9.174;2022-11-15T06:22:38;10.02;;;6.38;;
48751;SDS011;34544;48.836;9.174;2022-11-15T06:25:22;11.15;;;6.70;;
48751;SDS011;34544;48.836;9.174;2022-11-15T06:28:06;8.05;;;5.15;;
48751;SDS011;34544;48.836;9.174;2022-11-15T06:30:50;9.57;;;4.85;;
48751;SDS011;34544;48.836;9.174;2022-11-15T06:33:34;8.65;;;5.80;;
48751;SDS011;34544;48.836;9.174;2022-11-15T06:36:19;10.30;;;5.65;;
48751;SDS011;34544;48.836;9.174;2022-11-15T06:39:04;5.70;;;4.82;;
48751;SDS011;34544;48.836;9.174;2022-11-15T06:41:48;10.93;;;5.60;;
48751;SDS011;34544;48.836;9.174;2022-11-15T06:44:32;7.03;;;4.93;;
48751;SDS011;34544;48.836;9.174;2022-11-15T06:47:16;8.07;;;5.10;;
48751;SDS011;34544;48.836;9.174;2022-11-15T06:50:00;6.70;;;4.68;;
48751;SDS011;34544;48.836;9.174;2022-11-15T06:52:44;6.30;;;4.50;;
48751;SDS011;34544;48.836;9.174;2022-11-15T06:55:28;8.50;;;5.18;;
48751;SDS011;34544;48.836;9.174;2022-11-15T06:58:13;11.20;;;4.82;;
48751;SDS011;34544;48.836;9.174;2022-11-15T07:00:58;8.13;;;5.05;;
48751;SDS011;34544;48.836;9.174;2022-11-15T07:03:43;8.15;;;4.78;;
48751;SDS011;34544;48.836;9.174;2022-11-15T07:06:29;5.28;;;3.75;;
48751;SDS011;34544;48.836;9.174;2022-11-15T07:09:14;5.53;;;3.40;;
48751;SDS011;34544;48.836;9.174;2022-11-15T07:11:58;8.32;;;3.17;;
48751;SDS011;34544;48.836;9.174;2022-11-15T07:14:42;4.90;;;3.60;;
48751;SDS011;34544;48.836;9.174;2022-11-15T07:17:26;5.78;;;3.08;;
48751;SDS011;34544;48.836;9.174;2022-11-15T07:20:11;9.00;;;3.92;;
48751;SDS011;34544;48.836;9.174;2022-11-15T07:23:05;7.38;;;4.43;;
48751;SDS011;34544;48.836;9.174;2022-11-15T07:25:49;6.38;;;3.88;;
48751;SDS011;34544;48.836;9.174;2022-11-15T07:28:33;4.88;;;3.33;;
48751;SDS011;34544;48.836;9.174;2022-11-15T07:31:18;13.95;;;4.95;;
48751;SDS011;34544;48.836;9.174;2022-11-15T07:34:02;10.85;;;4.00;;
48751;SDS011;34544;48.836;9.174;2022-11-15T07:36:46;6.47;;;4.03;;
48751;SDS011;34544;48.836;9.174;2022-11-15T07:39:30;5.95;;;3.58;;
48751;SDS011;34544;48.836;9.174;2022-11-15T07:42:14;9.45;;;4.80;;
48751;SDS011;34544;48.836;9.174;2022-11-15T07:45:17;7.38;;;4.72;;
48751;SDS011;34544;48.836;9.174;2022-11-15T07:48:01;6.40;;;3.85;;
48751;SDS011;34544;48.836;9.174;2022-11-15T07:50:45;7.13;;;3.30;;
48751;SDS011;34544;48.836;9.174;2022-11-15T07:53:29;6.45;;;3.38;;
48751;SDS011;34544;48.836;9.174;2022-11-15T07:56:13;13.05;;;4.18;;
48751;SDS011;34544;48.836;9.174;2022-11-15T07:58:58;8.90;;;4.00;;
48751;SDS011;34544;48.836;9.174;2022-11-15T08:01:42;4.30;;;3.50;;
48751;SDS011;34544;48.836;9.174;2022-11-15T08:04:26;7.45;;;3.67;;
48751;SDS011;34544;48.836;9.174;2022-11-15T08:07:10;7.43;;;4.13;;
48751;SDS011;34544;48.836;9.174;2022-11-15T08:09:54;7.10;;;4.68;;
48751;SDS011;34544;48.836;9.174;2022-11-15T08:12:38;6.53;;;4.78;;
48751;SDS011;34544;48.836;9.174;2022-11-15T08:15:22;9.68;;;4.55;;
48751;SDS011;34544;48.836;9.174;2022-11-15T08:18:11;8.43;;;4.47;;
48751;SDS011;34544;48.836;9.174;2022-11-15T08:21:01;11.95;;;4.68;;
48751;SDS011;34544;48.836;9.174;2022-11-15T08:23:45;8.27;;;4.80;;
48751;SDS011;34544;48.836;9.174;2022-11-15T08:26:30;8.27;;;4.18;;
48751;SDS011;34544;48.836;9.174;2022-11-15T08:29:13;10.73;;;4.97;;
48751;SDS011;34544;48.836;9.174;2022-11-15T08:31:58;8.35;;;5.03;;
48751;SDS011;34544;48.836;9.174;2022-11-15T08:34:41;7.05;;;4.25;;
48751;SDS011;34544;48.836;9.174;2022-11-15T08:37:25;10.82;;;4.93;;
48751;SDS011;34544;48.836;9.174;2022-11-15T08:40:10;7.65;;;4.10;;
48751;SDS011;34544;48.836;9.174;2022-11-15T08:42:54;11.68;;;5.40;;
48751;SDS011;34544;48.836;9.174;2022-11-15T08:45:38;5.60;;;3.72;;
48751;SDS011;34544;48.836;9.174;2022-11-15T08:48:22;10.45;;;4.78;;
48751;SDS011;34544;48.836;9.174;2022-11-15T08:51:06;7.03;;;4.32;;
48751;SDS011;34544;48.836;9.174;2022-11-15T08:53:50;8.75;;;3.83;;
48751;SDS011;34544;48.836;9.174;2022-11-15T08:56:35;5.50;;;4.00;;
48751;SDS011;34544;48.836;9.174;2022-11-15T08:59:19;8.73;;;4.20;;
48751;SDS011;34544;48.836;9.174;2022-11-15T09:02:03;5.65;;;3.67;;
48751;SDS011;34544;48.836;9.174;2022-11-15T09:04:48;10.88;;;4.20;;
48751;SDS011;34544;48.836;9.174;2022-11-15T09:07:33;5.95;;;3.92;;
48751;SDS011;34544;48.836;9.174;2022-11-15T09:10:17;5.50;;;3.88;;
48751;SDS011;34544;48.836;9.174;2022-11-15T09:13:01;7.53;;;3.78;;
48751;SDS011;34544;48.836;9.174;2022-11-15T09:15:45;11.65;;;4.30;;
48751;SDS011;34544;48.836;9.174;2022-11-15T09:18:30;8.18;;;3.70;;
48751;SDS011;34544;48.836;9.174;2022-11-15T09:21:15;9.40;;;5.43;;
48751;SDS011;34544;48.836;9.174;2022-11-15T09:23:59;10.02;;;4.20;;
48751;SDS011;34544;48.836;9.174;2022-11-15T09:26:43;6.05;;;4.60;;
48751;SDS011;34544;48.836;9.174;2022-11-15T09:29:27;9.90;;;4.05;;
48751;SDS011;34544;48.836;9.174;2022-11-15T09:32:11;8.07;;;4.25;;
48751;SDS011;34544;48.836;9.174;2022-11-15T09:34:55;9.52;;;4.60;;
48751;SDS011;34544;48.836;9.174;2022-11-15T09:37:40;5.82;;;3.80;;
48751;SDS011;34544;48.836;9.174;2022-11-15T09:40:24;7.82;;;4.88;;
48751;SDS011;34544;48.836;9.174;2022-11-15T09:49:09;7.65;;;4.30;;
48751;SDS011;34544;48.836;9.174;2022-11-15T09:51:56;8.27;;;4.80;;
48751;SDS011;34544;48.836;9.174;2022-11-15T09:54:35;7.07;;;3.80;;
48751;SDS011;34544;48.836;9.174;2022-11-15T09:57:13;5.28;;;4.00;;
48751;SDS011;34544;48.836;9.174;2022-11-15T09:59:49;16.33;;;4.85;;
48751;SDS011;34544;48.836;9.174;2022-11-15T10:04:59;10.52;;;4.97;;
48751;SDS011;34544;48.836;9.174;2022-11-15T10:07:27;7.32;;;4.28;;
48751;SDS011;34544;48.836;9.174;2022-11-15T10:12:37;12.20;;;4.55;;
48751;SDS011;34544;48.836;9.174;2022-11-15T10:15:04;9.55;;;4.88;;
48751;SDS011;34544;48.836;9.174;2022-11-15T10:20:21;6.78;;;4.55;;
48751;SDS011;34544;48.836;9.174;2022-11-15T10:23:10;8.75;;;4.75;;
48751;SDS011;34544;48.836;9.174;2022-11-15T10:25:39;9.43;;;5.53;;
48751;SDS011;34544;48.836;9.174;2022-11-15T10:28:18;10.50;;;4.88;;
48751;SDS011;34544;48.836;9.174;2022-11-15T10:30:49;7.82;;;4.35;;
48751;SDS011;34544;48.836;9.174;2022-11-15T10:33:30;13.50;;;5.60;;
48751;SDS011;34544;48.836;9.174;2022-11-15T10:38:35;6.72;;;4.68;;
48751;SDS011;34544;48.836;9.174;2022-11-15T10:41:13;8.50;;;4.25;;
48751;SDS011;34544;48.836;9.174;2022-11-15T10:43:40;9.02;;;5.05;;
48751;SDS011;34544;48.836;9.174;2022-11-15T10:46:19;8.65;;;4.85;;
48751;SDS011;34544;48.836;9.174;2022-11-15T10:48:47;8.13;;;5.40;;
48751;SDS011;34544;48.836;9.174;2022-11-15T10:51:23;7.68;;;4.90;;
48751;SDS011;34544;48.836;9.174;2022-11-15T10:53:57;8.50;;;5.32;;
48751;SDS011;34544;48.836;9.174;2022-11-15T10:56:25;12.30;;;4.65;;
48751;SDS011;34544;48.836;9.174;2022-11-15T10:58:55;11.90;;;4.93;;
48751;SDS011;34544;48.836;9.174;2022-11-15T11:01:23;8.23;;;4.53;;
48751;SDS011;34544;48.836;9.174;2022-11-15T11:04:08;8.57;;;5.47;;
48751;SDS011;34544;48.836;9.174;2022-11-15T11:06:47;9.80;;;4.60;;
48751;SDS011;34544;48.836;9.174;2022-11-15T11:12:01;9.25;;;5.20;;
48751;SDS011;34544;48.836;9.174;2022-11-15T11:14:32;10.23;;;5.10;;
48751;SDS011;34544;48.836;9.174;2022-11-15T11:22:31;18.13;;;5.70;;
48751;SDS011;34544;48.836;9.174;2022-11-15T11:28:21;11.73;;;5.95;;
48751;SDS011;34544;48.836;9.174;2022-11-15T11:31:08;14.90;;;6.53;;
48751;SDS011;34544;48.836;9.174;2022-11-15T11:36:58;10.82;;;5.45;;
48751;SDS011;34544;48.836;9.174;2022-11-15T11:42:26;9.15;;;4.90;;
48751;SDS011;34544;48.836;9.174;2022-11-15T11:47:47;12.75;;;5.60;;
48751;SDS011;34544;48.836;9.174;2022-11-15T11:50:26;11.60;;;5.00;;
48751;SDS011;34544;48.836;9.174;2022-11-15T11:52:57;7.85;;;4.22;;
48751;SDS011;34544;48.836;9.174;2022-11-15T11:55:24;9.55;;;4.93;;
48751;SDS011;34544;48.836;9.174;2022-11-15T12:00:47;9.07;;;4.63;;
48751;SDS011;34544;48.836;9.174;2022-11-15T12:06:20;9.88;;;4.53;;
48751;SDS011;34544;48.836;9.174;2022-11-15T12:08:49;6.97;;;4.85;;
48751;SDS011;34544;48.836;9.174;2022-11-15T12:11:30;13.00;;;4.63;;
48751;SDS011;34544;48.836;9.174;2022-11-15T12:14:05;10.93;;;4.70;;
48751;SDS011;34544;48.836;9.174;2022-11-15T12:16:37;9.32;;;4.65;;
48751;SDS011;34544;48.836;9.174;2022-11-15T12:19:07;8.82;;;4.82;;
48751;SDS011;34544;48.836;9.174;2022-11-15T12:21:41;10.30;;;4.97;;
48751;SDS011;34544;48.836;9.174;2022-11-15T12:24:22;10.95;;;5.20;;
48751;SDS011;34544;48.836;9.174;2022-11-15T12:29:38;7.20;;;3.75;;
48751;SDS011;34544;48.836;9.174;2022-11-15T12:32:16;11.52;;;5.10;;
48751;SDS011;34544;48.836;9.174;2022-11-15T12:34:43;6.90;;;4.20;;
48751;SDS011;34544;48.836;9.174;2022-11-15T12:40:16;6.70;;;4.28;;
48751;SDS011;34544;48.836;9.174;2022-11-15T12:45:38;7.70;;;5.13;;
48751;SDS011;34544;48.836;9.174;2022-11-15T12:58:43;12.27;;;5.47;;
48751;SDS011;34544;48.836;9.174;2022-11-15T13:17:21;10.00;;;5.20;;
48751;SDS011;34544;48.836;9.174;2022-11-15T13:22:27;17.65;;;5.95;;
48751;SDS011;34544;48.836;9.174;2022-11-15T13:28:32;10.40;;;5.50;;
48751;SDS011;34544;48.836;9.174;2022-11-15T13:33:50;14.13;;;5.65;;
48751;SDS011;34544;48.836;9.174;2022-11-15T13:36:22;13.20;;;5.30;;
48751;SDS011;34544;48.836;9.174;2022-11-15T13:38:53;14.90;;;6.05;;
48751;SDS011;34544;48.836;9.174;2022-11-15T13:41:23;6.20;;;4.07;;
48751;SDS011;34544;48.836;9.174;2022-11-15T13:43:51;8.98;;;4.85;;
48751;SDS011;34544;48.836;9.174;2022-11-15T13:46:22;7.18;;;4.20;;
48751;SDS011;34544;48.836;9.174;2022-11-15T13:49:08;8.43;;;3.33;;
48751;SDS011;34544;48.836;9.174;2022-11-15T13:56:37;10.60;;;4.07;;
48751;SDS011;34544;48.836;9.174;2022-11-15T13:59:09;9.90;;;4.80;;
48751;SDS011;34544;48.836;9.174;2022-11-15T14:01:36;6.55;;;3.85;;
48751;SDS011;34544;48.836;9.174;2022-11-15T14:04:02;7.03;;;4.55;;
48751;SDS011;34544;48.836;9.174;2022-11-15T14:06:29;7.82;;;4.55;;
48751;SDS011;34544;48.836;9.174;2022-11-15T14:11:36;9.48;;;4.95;;
48751;SDS011;34544;48.836;9.174;2022-11-15T14:19:05;9.48;;;4.78;;
48751;SDS011;34544;48.836;9.174;2022-11-15T14:21:34;9.23;;;4.63;;
48751;SDS011;34544;48.836;9.174;2022-11-15T14:26:41;8.98;;;4.78;;
48751;SDS011;34544;48.836;9.174;2022-11-15T14:31:53;14.77;;;5.40;;
48751;SDS011;34544;48.836;9.174;2022-11-15T14:34:31;12.85;;;6.15;;
48751;SDS011;34544;48.836;9.174;2022-11-15T14:36:57;13.45;;;5.88;;
48751;SDS011;34544;48.836;9.174;2022-11-15T14:39:23;7.18;;;5.65;;
48751;SDS011;34544;48.836;9.174;2022-11-15T14:41:50;11.88;;;5.28;;
48751;SDS011;34544;48.836;9.174;2022-11-15T14:44:15;7.18;;;5.22;;
48751;SDS011;34544;48.836;9.174;2022-11-15T14:46:43;12.15;;;5.60;;
48751;SDS011;34544;48.836;9.174;2022-11-15T14:49:09;11.57;;;5.18;;
48751;SDS011;34544;48.836;9.174;2022-11-15T14:51:35;7.80;;;4.70;;
48751;SDS011;34544;48.836;9.174;2022-11-15T14:54:00;7.72;;;4.38;;
48751;SDS011;34544;48.836;9.174;2022-11-15T14:56:26;12.95;;;4.35;;
48751;SDS011;34544;48.836;9.174;2022-11-15T14:58:52;10.73;;;4.45;;
48751;SDS011;34544;48.836;9.174;2022-11-15T15:01:20;7.70;;;4.00;;
48751;SDS011;34544;48.836;9.174;2022-11-15T15:03:49;5.93;;;3.90;;
48751;SDS011;34544;48.836;9.174;2022-11-15T15:06:17;8.30;;;3.97;;
48751;SDS011;34544;48.836;9.174;2022-11-15T15:08:43;5.78;;;3.95;;
48751;SDS011;34544;48.836;9.174;2022-11-15T15:11:10;9.18;;;4.20;;
48751;SDS011;34544;48.836;9.174;2022-11-15T15:13:39;9.82;;;4.72;;
48751;SDS011;34544;48.836;9.174;2022-11-15T15:16:05;7.03;;;4.20;;
48751;SDS011;34544;48.836;9.174;2022-11-15T15:18:31;6.68;;;3.83;;
48751;SDS011;34544;48.836;9.174;2022-11-15T15:20:57;7.93;;;4.78;;
48751;SDS011;34544;48.836;9.174;2022-11-15T15:23:27;9.85;;;4.00;;
48751;SDS011;34544;48.836;9.174;2022-11-15T15:25:55;5.70;;;4.13;;
48751;SDS011;34544;48.836;9.174;2022-11-15T15:28:21;6.88;;;3.60;;
48751;SDS011;34544;48.836;9.174;2022-11-15T15:30:47;6.55;;;3.47;;
48751;SDS011;34544;48.836;9.174;2022-11-15T15:33:12;7.13;;;4.30;;
48751;SDS011;34544;48.836;9.174;2022-11-15T15:35:38;7.10;;;3.92;;
48751;SDS011;34544;48.836;9.174;2022-11-15T15:38:04;11.65;;;3.85;;
48751;SDS011;34544;48.836;9.174;2022-11-15T15:40:30;5.10;;;3.45;;
48751;SDS011;34544;48.836;9.174;2022-11-15T15:42:57;6.72;;;3.70;;
48751;SDS011;34544;48.836;9.174;2022-11-15T15:45:24;5.75;;;4.07;;
48751;SDS011;34544;48.836;9.174;2022-11-15T15:47:52;6.63;;;3.75;;
48751;SDS011;34544;48.836;9.174;2022-11-15T15:50:28;4.72;;;3.30;;
48751;SDS011;34544;48.836;9.174;2022-11-15T15:52:57;7.60;;;3.70;;
48751;SDS011;34544;48.836;9.174;2022-11-15T15:55:24;6.55;;;2.95;;
48751;SDS011;34544;48.836;9.174;2022-11-15T15:57:51;6.10;;;3.30;;
48751;SDS011;34544;48.836;9.174;2022-11-15T16:00:17;4.38;;;3.97;;
48751;SDS011;34544;48.836;9.174;2022-11-15T16:02:44;6.13;;;3.10;;
48751;SDS011;34544;48.836;9.174;2022-11-15T16:05:10;7.00;;;4.13;;
48751;SDS011;34544;48.836;9.174;2022-11-15T16:07:37;6.68;;;3.63;;
48751;SDS011;34544;48.836;9.174;2022-11-15T16:10:16;8.02;;;3.85;;
48751;SDS011;34544;48.836;9.174;2022-11-15T16:12:53;7.60;;;4.85;;
48751;SDS011;34544;48.836;9.174;2022-11-15T16:15:20;6.93;;;4.00;;
48751;SDS011;34544;48.836;9.174;2022-11-15T16:17:48;5.63;;;3.78;;
48751;SDS011;34544;48.836;9.174;2022-11-15T16:20:29;9.73;;;4.90;;
48751;SDS011;34544;48.836;9.174;2022-11-15T16:23:01;10.32;;;4.28;;
48751;SDS011;34544;48.836;9.174;2022-11-15T16:25:29;10.32;;;4.35;;
48751;SDS011;34544;48.836;9.174;2022-11-15T16:27:58;7.93;;;4.15;;
48751;SDS011;34544;48.836;9.174;2022-11-15T16:30:24;9.35;;;4.40;;
48751;SDS011;34544;48.836;9.174;2022-11-15T16:32:50;6.25;;;3.63;;
48751;SDS011;34544;48.836;9.174;2022-11-15T16:35:16;8.68;;;4.47;;
48751;SDS011;34544;48.836;9.174;2022-11-15T16:37:42;8.98;;;4.95;;
48751;SDS011;34544;48.836;9.174;2022-11-15T16:40:24;6.18;;;4.20;;
48751;SDS011;34544;48.836;9.174;2022-11-15T16:42:56;6.88;;;4.03;;
48751;SDS011;34544;48.836;9.174;2022-11-15T16:45:24;5.63;;;3.80;;
48751;SDS011;34544;48.836;9.174;2022-11-15T16:47:50;5.93;;;3.83;;
48751;SDS011;34544;48.836;9.174;2022-11-15T16:50:21;6.82;;;3.90;;
48751;SDS011;34544;48.836;9.174;2022-11-15T16:52:49;6.75;;;4.03;;
48751;SDS011;34544;48.836;9.174;2022-11-15T16:55:20;6.30;;;4.63;;
48751;SDS011;34544;48.836;9.174;2022-11-15T16:57:47;10.52;;;4.72;;
48751;SDS011;34544;48.836;9.174;2022-11-15T17:00:13;9.50;;;4.38;;
48751;SDS011;34544;48.836;9.174;2022-11-15T17:02:43;7.45;;;4.28;;
48751;SDS011;34544;48.836;9.174;2022-11-15T17:05:09;10.68;;;4.15;;
48751;SDS011;34544;48.836;9.174;2022-11-15T17:07:36;7.40;;;6.00;;
48751;SDS011;34544;48.836;9.174;2022-11-15T17:10:02;9.38;;;5.95;;
48751;SDS011;34544;48.836;9.174;2022-11-15T17:12:28;9.60;;;6.57;;
48751;SDS011;34544;48.836;9.174;2022-11-15T17:14:55;7.35;;;5.88;;
48751;SDS011;34544;48.836;9.174;2022-11-15T17:17:21;11.80;;;5.05;;
48751;SDS011;34544;48.836;9.174;2022-11-15T17:19:47;10.40;;;5.72;;
48751;SDS011;34544;48.836;9.174;2022-11-15T17:22:13;7.18;;;4.50;;
48751;SDS011;34544;48.836;9.174;2022-11-15T17:24:38;7.43;;;4.82;;
48751;SDS011;34544;48.836;9.174;2022-11-15T17:27:04;7.70;;;4.95;;
48751;SDS011;34544;48.836;9.174;2022-11-15T17:29:30;7.10;;;4.68;;
48751;SDS011;34544;48.836;9.174;2022-11-15T17:31:55;7.93;;;5.45;;
48751;SDS011;34544;48.836;9.174;2022-11-15T17:34:21;9.40;;;4.95;;
48751;SDS011;34544;48.836;9.174;2022-11-15T17:36:47;9.93;;;5.22;;
48751;SDS011;34544;48.836;9.174;2022-11-15T17:39:13;12.73;;;5.80;;
48751;SDS011;34544;48.836;9.174;2022-11-15T17:41:39;6.63;;;4.85;;
48751;SDS011;34544;48.836;9.174;2022-11-15T17:44:04;8.93;;;4.82;;
48751;SDS011;34544;48.836;9.174;2022-11-15T17:46:30;8.32;;;5.28;;
48751;SDS011;34544;48.836;9.174;2022-11-15T17:48:57;6.90;;;4.22;;
48751;SDS011;34544;48.836;9.174;2022-11-15T17:51:23;8.05;;;5.25;;
48751;SDS011;34544;48.836;9.174;2022-11-15T17:53:50;6.55;;;3.92;;
48751;SDS011;34544;48.836;9.174;2022-11-15T17:56:21;5.35;;;3.78;;
48751;SDS011;34544;48.836;9.174;2022-11-15T17:58:48;9.50;;;4.50;;
48751;SDS011;34544;48.836;9.174;2022-11-15T18:01:18;7.80;;;4.22;;
48751;SDS011;34544;48.836;9.174;2022-11-15T18:03:48;5.50;;;4.07;;
48751;SDS011;34544;48.836;9.174;2022-11-15T18:06:15;5.82;;;3.83;;
48751;SDS011;34544;48.836;9.174;2022-11-15T18:08:43;6.47;;;4.15;;
48751;SDS011;34544;48.836;9.174;2022-11-15T18:11:10;6.70;;;4.22;;